createdAt,value
2022-11-09T00:01:44.317Z,100.00
2022-11-09T00:04:15.291Z,100.00
2022-11-09T00:06:43.593Z,100.00
2022-11-09T00:09:11.840Z,100.00
2022-11-09T00:11:40.179Z,100.00
2022-11-09T00:14:20.892Z,100.00
2022-11-09T00:16:50.300Z,100.00
2022-11-09T00:19:18.731Z,100.00
2022-11-09T00:21:47.004Z,100.00
2022-11-09T00:24:15.140Z,100.00
2022-11-09T00:26:43.114Z,100.00
2022-11-09T00:29:11.370Z,100.00
2022-11-09T00:31:43.297Z,100.00
2022-11-09T00:34:13.010Z,100.00
2022-11-09T00:36:41.053Z,100.00
2022-11-09T00:39:11.821Z,100.00
2022-11-09T00:41:43.188Z,100.00
2022-11-09T00:44:11.208Z,100.00
2022-11-09T00:46:41.312Z,100.00
2022-11-09T00:49:09.928Z,100.00
2022-11-09T00:51:39.440Z,100.00
2022-11-09T00:54:08.281Z,100.00
2022-11-09T00:56:37.324Z,100.00
2022-11-09T00:59:05.807Z,100.00
2022-11-09T01:01:33.762Z,100.00
2022-11-09T01:04:01.845Z,100.00
2022-11-09T01:06:30.379Z,100.00
2022-11-09T01:09:00.183Z,100.00
2022-11-09T01:11:29.168Z,100.00
2022-11-09T01:13:59.928Z,100.00
2022-11-09T01:16:31.472Z,100.00
2022-11-09T01:19:00.763Z,100.00
2022-11-09T01:21:31.304Z,100.00
2022-11-09T01:24:01.855Z,100.00
2022-11-09T01:26:31.286Z,100.00
2022-11-09T01:28:59.359Z,100.00
2022-11-09T01:31:30.716Z,100.00
2022-11-09T01:34:01.710Z,100.00
2022-11-09T01:36:30.201Z,100.00
2022-11-09T01:38:58.830Z,100.00
2022-11-09T01:41:29.921Z,100.00
2022-11-09T01:44:08.327Z,100.00
2022-11-09T01:46:43.216Z,100.00
2022-11-09T01:49:19.984Z,100.00
2022-11-09T01:51:53.506Z,100.00
2022-11-09T01:54:26.008Z,100.00
2022-11-09T01:56:59.195Z,100.00
2022-11-09T01:59:31.045Z,100.00
2022-11-09T02:02:00.563Z,100.00
2022-11-09T02:04:32.817Z,100.00
2022-11-09T02:07:01.497Z,100.00
2022-11-09T02:09:38.898Z,100.00
2022-11-09T02:12:09.909Z,100.00
2022-11-09T02:14:40.505Z,100.00
2022-11-09T02:17:12.887Z,100.00
2022-11-09T02:19:40.829Z,100.00
2022-11-09T02:22:13.205Z,100.00
2022-11-09T02:24:43.485Z,100.00
2022-11-09T02:27:11.809Z,100.00
2022-11-09T02:29:45.645Z,100.00
2022-11-09T02:32:18.724Z,100.00
2022-11-09T02:34:48.795Z,100.00
2022-11-09T02:37:27.998Z,100.00
2022-11-09T02:40:01.650Z,100.00
2022-11-09T02:42:30.356Z,100.00
2022-11-09T02:45:00.830Z,100.00
2022-11-09T02:47:30.251Z,100.00
2022-11-09T02:49:58.513Z,100.00
2022-11-09T02:52:28.154Z,100.00
2022-11-09T02:54:56.235Z,100.00
2022-11-09T02:57:24.521Z,100.00
2022-11-09T02:59:52.529Z,100.00
2022-11-09T03:02:20.501Z,100.00
2022-11-09T03:04:48.716Z,100.00
2022-11-09T03:07:17.000Z,100.00
2022-11-09T03:09:47.339Z,100.00
2022-11-09T03:12:30.570Z,100.00
2022-11-09T03:15:00.026Z,100.00
2022-11-09T03:17:28.621Z,100.00
2022-11-09T03:19:56.873Z,100.00
2022-11-09T03:22:28.515Z,100.00
2022-11-09T03:24:58.683Z,100.00
2022-11-09T03:27:26.727Z,100.00
2022-11-09T03:29:54.688Z,100.00
2022-11-09T03:32:22.793Z,100.00
2022-11-09T03:34:51.642Z,100.00
2022-11-09T03:37:21.753Z,100.00
2022-11-09T03:39:49.957Z,100.00
2022-11-09T03:42:21.712Z,100.00
2022-11-09T03:44:49.549Z,100.00
2022-11-09T03:47:19.053Z,100.00
2022-11-09T03:49:47.022Z,100.00
2022-11-09T03:52:15.410Z,100.00
2022-11-09T03:54:43.446Z,100.00
2022-11-09T03:57:11.389Z,100.00
2022-11-09T03:59:43.677Z,100.00
2022-11-09T04:02:13.630Z,100.00
2022-11-09T04:04:41.960Z,100.00
2022-11-09T04:07:11.425Z,100.00
2022-11-09T04:09:39.507Z,100.00
2022-11-09T04:12:10.646Z,100.00
2022-11-09T04:14:39.958Z,100.00
2022-11-09T04:17:08.064Z,100.00
2022-11-09T04:19:36.545Z,100.00
2022-11-09T04:22:04.462Z,100.00
2022-11-09T04:24:32.469Z,100.00
2022-11-09T04:27:00.533Z,100.00
2022-11-09T04:29:31.195Z,100.00
2022-11-09T04:32:00.814Z,100.00
2022-11-09T04:34:28.687Z,100.00
2022-11-09T04:36:56.608Z,100.00
2022-11-09T04:39:24.641Z,100.00
2022-11-09T04:41:53.090Z,100.00
2022-11-09T04:44:21.735Z,100.00
2022-11-09T04:46:49.835Z,100.00
2022-11-09T04:49:20.532Z,100.00
2022-11-09T04:51:52.441Z,100.00
2022-11-09T04:54:21.009Z,100.00
2022-11-09T04:56:48.875Z,100.00
2022-11-09T04:59:20.973Z,100.00
2022-11-09T05:01:49.247Z,100.00
2022-11-09T05:04:17.195Z,100.00
2022-11-09T05:06:49.694Z,100.00
2022-11-09T05:09:17.821Z,100.00
2022-11-09T05:11:45.648Z,100.00
2022-11-09T05:14:13.770Z,100.00
2022-11-09T05:16:41.675Z,100.00
2022-11-09T05:19:09.738Z,100.00
2022-11-09T05:21:37.811Z,100.00
2022-11-09T05:24:07.043Z,100.00
2022-11-09T05:26:37.197Z,100.00
2022-11-09T05:29:07.022Z,100.00
2022-11-09T05:31:35.731Z,100.00
2022-11-09T05:34:04.296Z,100.00
2022-11-09T05:36:33.745Z,100.00
2022-11-09T05:39:02.310Z,100.00
2022-11-09T05:41:31.544Z,100.00
2022-11-09T05:43:59.523Z,100.00
2022-11-09T05:46:27.992Z,100.00
2022-11-09T05:48:55.998Z,100.00
2022-11-09T05:51:24.209Z,100.00
2022-11-09T05:53:52.377Z,100.00
2022-11-09T05:56:20.302Z,100.00
2022-11-09T05:58:49.758Z,100.00
2022-11-09T06:01:19.863Z,100.00
2022-11-09T06:03:47.987Z,100.00
2022-11-09T06:06:17.612Z,100.00
2022-11-09T06:08:45.803Z,100.00
2022-11-09T06:11:19.900Z,100.00
2022-11-09T06:13:53.312Z,100.00
2022-11-09T06:16:21.596Z,100.00
2022-11-09T06:18:49.627Z,100.00
2022-11-09T06:21:17.617Z,100.00
2022-11-09T06:23:45.584Z,100.00
2022-11-09T06:26:14.540Z,100.00
2022-11-09T06:28:43.262Z,100.00
2022-11-09T06:31:16.661Z,100.00
2022-11-09T06:33:44.789Z,100.00
2022-11-09T06:36:13.260Z,100.00
2022-11-09T06:38:41.841Z,100.00
2022-11-09T06:41:11.828Z,100.00
2022-11-09T06:43:39.734Z,100.00
2022-11-09T06:46:08.142Z,100.00
2022-11-09T06:48:37.974Z,100.00
2022-11-09T06:51:07.835Z,100.00
2022-11-09T06:53:37.973Z,100.00
2022-11-09T06:56:07.213Z,100.00
2022-11-09T06:58:35.186Z,100.00
2022-11-09T07:01:09.088Z,100.00
2022-11-09T07:03:39.724Z,100.00
2022-11-09T07:06:10.480Z,100.00
2022-11-09T07:08:39.403Z,100.00
2022-11-09T07:11:08.425Z,100.00
2022-11-09T07:13:36.452Z,100.00
2022-11-09T07:16:04.555Z,100.00
2022-11-09T07:18:32.834Z,100.00
2022-11-09T07:21:07.750Z,100.00
2022-11-09T07:23:39.528Z,100.00
2022-11-09T07:26:07.638Z,100.00
2022-11-09T07:28:35.768Z,100.00
2022-11-09T07:31:04.019Z,100.00
2022-11-09T07:33:33.519Z,100.00
2022-11-09T07:36:03.850Z,100.00
2022-11-09T07:38:32.489Z,100.00
2022-11-09T07:41:01.467Z,100.00
2022-11-09T07:43:29.930Z,100.00
2022-11-09T07:45:58.281Z,100.00
2022-11-09T07:48:26.300Z,100.00
2022-11-09T07:50:55.621Z,100.00
2022-11-09T07:53:25.011Z,100.00
2022-11-09T07:55:58.937Z,100.00
2022-11-09T07:58:27.492Z,100.00
2022-11-09T08:00:55.999Z,100.00
2022-11-09T08:03:25.722Z,100.00
2022-11-09T08:05:53.789Z,100.00
2022-11-09T08:08:21.736Z,100.00
2022-11-09T08:10:53.057Z,100.00
2022-11-09T08:13:21.775Z,100.00
2022-11-09T08:15:49.968Z,100.00
2022-11-09T08:18:20.882Z,100.00
2022-11-09T08:20:50.177Z,100.00
2022-11-09T08:23:21.000Z,100.00
2022-11-09T08:25:51.728Z,100.00
2022-11-09T08:28:20.011Z,100.00
2022-11-09T08:30:57.070Z,100.00
2022-11-09T08:33:25.292Z,100.00
2022-11-09T08:35:53.562Z,100.00
2022-11-09T08:38:22.283Z,100.00
2022-11-09T08:40:52.025Z,100.00
2022-11-09T08:43:19.930Z,100.00
2022-11-09T08:45:48.804Z,100.00
2022-11-09T08:48:16.832Z,100.00
2022-11-09T08:50:44.804Z,100.00
2022-11-09T08:53:13.173Z,100.00
2022-11-09T08:55:41.796Z,100.00
2022-11-09T08:58:13.196Z,100.00
2022-11-09T09:00:41.188Z,100.00
2022-11-09T09:03:11.262Z,98.90
2022-11-09T09:05:39.681Z,98.13
2022-11-09T09:08:08.444Z,97.28
2022-11-09T09:10:36.622Z,97.96
2022-11-09T09:13:05.220Z,98.31
2022-11-09T09:15:34.964Z,98.49
2022-11-09T09:18:03.307Z,98.69
2022-11-09T09:20:31.482Z,99.08
2022-11-09T09:23:00.724Z,99.52
2022-11-09T09:25:29.447Z,100.00
2022-11-09T09:27:57.496Z,100.00
2022-11-09T09:30:25.427Z,100.00
2022-11-09T09:32:59.334Z,100.00
2022-11-09T09:35:27.368Z,100.00
2022-11-09T09:37:55.562Z,99.85
2022-11-09T09:40:31.328Z,97.89
2022-11-09T09:42:59.344Z,98.00
2022-11-09T09:45:31.963Z,98.35
2022-11-09T09:48:07.043Z,97.18
2022-11-09T09:50:41.915Z,96.62
2022-11-09T09:53:26.542Z,96.53
2022-11-09T09:55:57.920Z,96.02
2022-11-09T09:58:28.797Z,95.16
2022-11-09T10:01:01.230Z,96.44
2022-11-09T10:03:30.911Z,97.37
2022-11-09T10:06:06.254Z,96.47
2022-11-09T10:08:48.360Z,95.23
2022-11-09T10:11:26.218Z,95.40
2022-11-09T10:14:18.745Z,94.52
2022-11-09T10:16:56.023Z,93.84
2022-11-09T10:19:40.084Z,92.75
2022-11-09T10:22:16.984Z,92.55
2022-11-09T10:25:18.412Z,92.29
2022-11-09T10:27:48.513Z,93.21
2022-11-09T10:30:19.139Z,93.50
2022-11-09T10:32:51.517Z,94.38
2022-11-09T10:35:25.641Z,95.28
2022-11-09T10:37:55.086Z,95.33
2022-11-09T10:40:25.383Z,95.89
2022-11-09T10:42:57.283Z,96.08
2022-11-09T10:45:37.505Z,97.13
2022-11-09T10:48:07.543Z,97.92
2022-11-09T10:50:40.800Z,98.41
2022-11-09T10:53:17.076Z,98.70
2022-11-09T10:55:53.023Z,98.15
2022-11-09T10:58:30.066Z,97.59
2022-11-09T11:01:07.078Z,96.92
2022-11-09T11:03:38.358Z,96.53
2022-11-09T11:06:15.814Z,96.76
2022-11-09T11:08:45.407Z,96.21
2022-11-09T11:11:33.115Z,96.31
2022-11-09T11:14:19.845Z,95.65
2022-11-09T11:16:50.816Z,95.68
2022-11-09T11:19:34.865Z,95.15
2022-11-09T11:22:27.874Z,95.53
2022-11-09T11:24:58.186Z,96.09
2022-11-09T11:27:32.087Z,96.53
2022-11-09T11:30:11.777Z,96.81
2022-11-09T11:32:40.681Z,96.43
2022-11-09T11:35:15.719Z,96.19
2022-11-09T11:37:55.163Z,95.49
2022-11-09T11:40:31.097Z,94.60
2022-11-09T11:43:12.493Z,95.30
2022-11-09T11:45:43.820Z,95.92
2022-11-09T11:48:36.469Z,95.87
2022-11-09T11:51:12.560Z,95.40
2022-11-09T11:53:55.803Z,95.49
2022-11-09T11:56:27.991Z,94.73
2022-11-09T11:59:26.330Z,92.26
2022-11-09T12:02:12.294Z,92.14
2022-11-09T12:05:04.694Z,92.10
2022-11-09T12:07:43.013Z,92.35
2022-11-09T12:10:28.525Z,91.68
2022-11-09T12:13:05.628Z,90.99
2022-11-09T12:15:48.754Z,91.44
2022-11-09T12:18:30.389Z,90.90
2022-11-09T12:21:11.508Z,90.88
2022-11-09T12:23:53.672Z,90.42
2022-11-09T12:26:32.921Z,90.28
2022-11-09T12:29:11.976Z,89.68
2022-11-09T12:31:50.731Z,89.61
2022-11-09T12:34:26.664Z,90.12
2022-11-09T12:36:59.005Z,90.44
2022-11-09T12:39:32.836Z,91.18
2022-11-09T12:42:07.278Z,91.58
2022-11-09T12:44:39.405Z,92.07
2022-11-09T12:47:11.454Z,92.25
2022-11-09T12:49:41.820Z,92.64
2022-11-09T12:52:14.199Z,93.11
2022-11-09T12:54:45.973Z,93.15
2022-11-09T12:57:22.693Z,93.57
2022-11-09T12:59:53.385Z,93.59
2022-11-09T13:02:28.540Z,93.71
2022-11-09T13:04:58.236Z,94.21
2022-11-09T13:07:47.048Z,93.90
2022-11-09T13:10:29.295Z,94.25
2022-11-09T13:13:20.026Z,93.97
2022-11-09T13:16:34.787Z,94.38
2022-11-09T13:19:02.798Z,93.99
2022-11-09T13:21:38.555Z,94.82
2022-11-09T13:24:55.232Z,95.18
2022-11-09T13:27:45.130Z,95.49
2022-11-09T13:30:40.965Z,95.55
2022-11-09T13:33:24.713Z,95.94
2022-11-09T13:36:16.318Z,96.08
2022-11-09T13:38:44.509Z,96.61
2022-11-09T13:41:45.597Z,96.84
2022-11-09T13:44:20.644Z,96.45
2022-11-09T13:46:52.784Z,96.84
2022-11-09T13:49:44.507Z,97.37
2022-11-09T13:52:48.679Z,97.50
2022-11-09T13:55:30.985Z,97.76
2022-11-09T13:58:03.782Z,97.74
2022-11-09T14:00:32.230Z,97.81
2022-11-09T14:03:06.607Z,98.03
2022-11-09T14:05:38.682Z,98.55
2022-11-09T14:08:06.920Z,98.42
2022-11-09T14:10:46.005Z,98.57
2022-11-09T14:13:48.841Z,98.97
2022-11-09T14:16:27.734Z,98.64
2022-11-09T14:19:07.549Z,99.01
2022-11-09T14:21:44.494Z,99.65
2022-11-09T14:24:18.445Z,99.71
2022-11-09T14:27:04.566Z,100.00
2022-11-09T14:29:33.997Z,100.00
2022-11-09T14:32:03.690Z,100.00
2022-11-09T14:34:32.935Z,100.00
2022-11-09T14:37:04.896Z,100.00
2022-11-09T14:39:35.095Z,100.00
2022-11-09T14:42:03.281Z,100.00
2022-11-09T14:44:35.922Z,100.00
2022-11-09T14:47:04.900Z,100.00
2022-11-09T14:49:34.449Z,100.00
2022-11-09T14:52:03.303Z,100.00
2022-11-09T14:54:31.473Z,100.00
2022-11-09T14:57:01.588Z,100.00
2022-11-09T14:59:32.673Z,100.00
2022-11-09T15:02:04.225Z,100.00
2022-11-09T15:04:32.495Z,100.00
2022-11-09T15:07:05.524Z,100.00
2022-11-09T15:09:37.044Z,100.00
2022-11-09T15:12:15.308Z,100.00
2022-11-09T15:14:44.075Z,100.00
2022-11-09T15:17:24.829Z,100.00
2022-11-09T15:19:56.265Z,100.00
2022-11-09T15:22:50.867Z,100.00
2022-11-09T15:25:31.710Z,100.00
2022-11-09T15:28:04.098Z,100.00
2022-11-09T15:30:35.022Z,100.00
2022-11-09T15:33:19.277Z,100.00
2022-11-09T15:35:50.421Z,100.00
2022-11-09T15:38:39.964Z,100.00
2022-11-09T15:41:13.579Z,100.00
2022-11-09T15:43:41.923Z,100.00
2022-11-09T15:46:12.705Z,100.00
2022-11-09T15:48:44.816Z,100.00
2022-11-09T15:51:14.904Z,100.00
2022-11-09T15:53:44.253Z,100.00
2022-11-09T15:56:17.913Z,100.00
2022-11-09T15:58:47.086Z,100.00
2022-11-09T16:01:14.990Z,100.00
2022-11-09T16:03:43.236Z,100.00
2022-11-09T16:06:11.765Z,100.00
2022-11-09T16:08:39.700Z,100.00
2022-11-09T16:11:11.014Z,100.00
2022-11-09T16:13:38.901Z,100.00
2022-11-09T16:16:08.598Z,100.00
2022-11-09T16:18:36.592Z,100.00
2022-11-09T16:21:08.774Z,100.00
2022-11-09T16:23:37.043Z,100.00
2022-11-09T16:26:11.225Z,100.00
2022-11-09T16:28:40.189Z,100.00
2022-11-09T16:31:08.656Z,100.00
2022-11-09T16:33:37.329Z,100.00
2022-11-09T16:36:09.191Z,100.00
2022-11-09T16:38:43.464Z,100.00
2022-11-09T16:41:15.436Z,100.00
2022-11-09T16:43:45.440Z,100.00
2022-11-09T16:46:19.505Z,100.00
2022-11-09T16:48:47.509Z,100.00
2022-11-09T16:51:15.566Z,100.00
2022-11-09T16:53:43.423Z,100.00
2022-11-09T16:56:12.951Z,100.00
2022-11-09T16:58:40.997Z,100.00
2022-11-09T17:01:12.477Z,100.00
2022-11-09T17:03:41.835Z,100.00
2022-11-09T17:06:11.166Z,100.00
2022-11-09T17:08:39.977Z,100.00
2022-11-09T17:11:15.423Z,100.00
2022-11-09T17:13:43.343Z,100.00
2022-11-09T17:16:13.560Z,100.00
2022-11-09T17:18:42.870Z,100.00
2022-11-09T17:21:14.460Z,100.00
2022-11-09T17:23:43.466Z,100.00
2022-11-09T17:26:13.093Z,100.00
2022-11-09T17:28:43.171Z,100.00
2022-11-09T17:31:12.899Z,100.00
2022-11-09T17:33:40.857Z,100.00
2022-11-09T17:36:11.277Z,100.00
2022-11-09T17:38:39.884Z,100.00
2022-11-09T17:41:09.021Z,100.00
2022-11-09T17:43:41.820Z,100.00
2022-11-09T17:46:12.099Z,100.00
2022-11-09T17:48:41.353Z,100.00
2022-11-09T17:51:10.704Z,100.00
2022-11-09T17:53:39.011Z,100.00
2022-11-09T17:56:08.477Z,100.00
2022-11-09T17:58:41.426Z,100.00
2022-11-09T18:01:11.715Z,100.00
2022-11-09T18:03:40.318Z,100.00
2022-11-09T18:06:12.000Z,100.00
2022-11-09T18:08:40.082Z,100.00
2022-11-09T18:11:08.031Z,100.00
2022-11-09T18:13:36.141Z,100.00
2022-11-09T18:16:11.098Z,100.00
2022-11-09T18:18:43.033Z,100.00
2022-11-09T18:21:12.855Z,100.00
2022-11-09T18:23:40.968Z,100.00
2022-11-09T18:26:09.363Z,100.00
2022-11-09T18:28:38.478Z,100.00
2022-11-09T18:31:09.570Z,100.00
2022-11-09T18:33:40.140Z,100.00
2022-11-09T18:36:11.595Z,100.00
2022-11-09T18:38:39.897Z,100.00
2022-11-09T18:41:09.799Z,100.00
2022-11-09T18:43:37.984Z,100.00
2022-11-09T18:46:11.945Z,100.00
2022-11-09T18:48:40.107Z,100.00
2022-11-09T18:51:09.608Z,100.00
2022-11-09T18:53:40.416Z,100.00
2022-11-09T18:56:17.319Z,100.00
2022-11-09T18:58:45.782Z,100.00
2022-11-09T19:01:16.144Z,100.00
2022-11-09T19:03:44.301Z,100.00
2022-11-09T19:06:15.399Z,100.00
2022-11-09T19:09:00.651Z,100.00
2022-11-09T19:11:30.129Z,100.00
2022-11-09T19:13:58.401Z,100.00
2022-11-09T19:16:28.540Z,100.00
2022-11-09T19:18:56.659Z,100.00
2022-11-09T19:21:35.734Z,100.00
2022-11-09T19:24:04.787Z,100.00
2022-11-09T19:26:33.206Z,100.00
2022-11-09T19:29:01.085Z,100.00
2022-11-09T19:31:30.771Z,100.00
2022-11-09T19:33:59.183Z,100.00
2022-11-09T19:36:30.560Z,100.00
2022-11-09T19:38:59.405Z,100.00
2022-11-09T19:41:27.338Z,100.00
2022-11-09T19:43:58.566Z,100.00
2022-11-09T19:46:27.049Z,100.00
2022-11-09T19:48:56.589Z,100.00
2022-11-09T19:51:25.156Z,100.00
2022-11-09T19:53:54.799Z,100.00
2022-11-09T19:56:24.650Z,100.00
2022-11-09T19:58:54.223Z,100.00
2022-11-09T20:01:22.696Z,100.00
2022-11-09T20:03:52.521Z,100.00
2022-11-09T20:06:23.124Z,100.00
2022-11-09T20:08:52.316Z,100.00
2022-11-09T20:11:35.785Z,100.00
2022-11-09T20:14:04.311Z,100.00
2022-11-09T20:16:33.310Z,100.00
2022-11-09T20:19:01.687Z,100.00
2022-11-09T20:21:31.302Z,100.00
2022-11-09T20:23:59.256Z,100.00
2022-11-09T20:26:27.217Z,100.00
2022-11-09T20:28:56.111Z,100.00
2022-11-09T20:31:24.567Z,100.00
2022-11-09T20:33:52.621Z,100.00
2022-11-09T20:36:20.950Z,100.00
2022-11-09T20:38:50.151Z,100.00
2022-11-09T20:41:21.679Z,100.00
2022-11-09T20:43:52.434Z,100.00
2022-11-09T20:46:22.016Z,100.00
2022-11-09T20:48:55.374Z,100.00
2022-11-09T20:51:24.704Z,100.00
2022-11-09T20:53:53.977Z,100.00
2022-11-09T20:56:21.999Z,100.00
2022-11-09T20:58:50.154Z,100.00
2022-11-09T21:01:20.110Z,100.00
2022-11-09T21:03:49.904Z,100.00
2022-11-09T21:06:18.131Z,100.00
2022-11-09T21:08:46.842Z,100.00
2022-11-09T21:11:16.116Z,100.00
2022-11-09T21:13:46.377Z,100.00
2022-11-09T21:16:16.008Z,100.00
2022-11-09T21:18:44.313Z,100.00
2022-11-09T21:21:14.042Z,100.00
2022-11-09T21:24:00.096Z,100.00
2022-11-09T21:26:47.760Z,100.00
2022-11-09T21:29:34.747Z,100.00
2022-11-09T21:32:03.471Z,100.00
2022-11-09T21:34:36.305Z,100.00
2022-11-09T21:37:05.821Z,100.00
2022-11-09T21:39:33.996Z,100.00
2022-11-09T21:42:04.735Z,100.00
2022-11-09T21:44:34.269Z,100.00
2022-11-09T21:47:02.806Z,100.00
2022-11-09T21:49:31.476Z,100.00
2022-11-09T21:51:59.591Z,100.00
2022-11-09T21:54:28.297Z,100.00
2022-11-09T21:56:56.371Z,100.00
2022-11-09T21:59:26.015Z,100.00
2022-11-09T22:01:53.843Z,100.00
2022-11-09T22:04:21.779Z,100.00
2022-11-09T22:06:49.927Z,100.00
2022-11-09T22:09:19.177Z,100.00
2022-11-09T22:12:04.916Z,100.00
2022-11-09T22:14:51.745Z,100.00
2022-11-09T22:17:19.773Z,100.00
2022-11-09T22:20:05.182Z,100.00
2022-11-09T22:22:34.147Z,100.00
2022-11-09T22:25:02.105Z,100.00
2022-11-09T22:27:31.571Z,100.00
2022-11-09T22:30:01.224Z,100.00
2022-11-09T22:32:29.194Z,100.00
2022-11-09T22:34:57.077Z,100.00
2022-11-09T22:37:25.076Z,100.00
2022-11-09T22:39:53.093Z,100.00
2022-11-09T22:42:21.034Z,100.00
2022-11-09T22:44:49.269Z,100.00
2022-11-09T22:47:18.504Z,100.00
2022-11-09T22:49:46.393Z,100.00
2022-11-09T22:52:14.634Z,100.00
2022-11-09T22:54:42.511Z,100.00
2022-11-09T22:57:10.363Z,100.00
2022-11-09T22:59:38.562Z,100.00
2022-11-09T23:02:06.414Z,100.00
2022-11-09T23:04:35.750Z,100.00
2022-11-09T23:07:03.875Z,100.00
2022-11-09T23:09:31.790Z,100.00
2022-11-09T23:11:59.671Z,100.00
2022-11-09T23:14:41.605Z,100.00
2022-11-09T23:17:29.520Z,100.00
2022-11-09T23:19:57.930Z,100.00
2022-11-09T23:22:25.810Z,100.00
2022-11-09T23:25:11.507Z,100.00
2022-11-09T23:27:39.467Z,100.00
2022-11-09T23:30:08.193Z,100.00
2022-11-09T23:32:36.204Z,100.00
2022-11-09T23:35:06.163Z,100.00
2022-11-09T23:37:34.057Z,100.00
2022-11-09T23:40:02.017Z,100.00
2022-11-09T23:42:29.943Z,100.00
2022-11-09T23:44:57.959Z,100.00
2022-11-09T23:47:25.963Z,100.00
2022-11-09T23:49:53.845Z,100.00
2022-11-09T23:52:23.195Z,100.00
2022-11-09T23:54:51.164Z,100.00
2022-11-09T23:57:19.039Z,100.00
2022-11-09T23:59:47.073Z,100.00
